createdAt,value
2022-11-17T00:00:28.756Z,6.45
2022-11-17T00:02:55.404Z,6.07
2022-11-17T00:05:22.355Z,4.95
2022-11-17T00:07:49.843Z,11.10
2022-11-17T00:10:17.030Z,7.70
2022-11-17T00:13:02.606Z,8.63
2022-11-17T00:15:29.407Z,7.18
2022-11-17T00:18:14.629Z,7.15
2022-11-17T00:21:00.693Z,8.32
2022-11-17T00:23:46.914Z,9.40
2022-11-17T00:26:18.746Z,9.07
2022-11-17T00:28:45.600Z,5.90
2022-11-17T00:31:33.800Z,9.90
2022-11-17T00:34:07.110Z,7.97
2022-11-17T00:36:39.821Z,5.78
2022-11-17T00:39:07.851Z,5.70
2022-11-17T00:41:34.842Z,4.28
2022-11-17T00:44:01.640Z,7.55
2022-11-17T00:46:28.307Z,9.25
2022-11-17T00:48:54.949Z,6.03
2022-11-17T00:51:22.341Z,9.10
2022-11-17T00:53:49.349Z,9.65
2022-11-17T00:56:16.530Z,7.88
2022-11-17T00:58:43.595Z,8.70
2022-11-17T01:01:10.464Z,8.57
2022-11-17T01:03:37.919Z,4.78
2022-11-17T01:06:10.052Z,8.52
2022-11-17T01:08:37.122Z,9.02
2022-11-17T01:11:08.623Z,7.70
2022-11-17T01:13:36.197Z,4.93
2022-11-17T01:16:06.324Z,8.25
2022-11-17T01:18:33.711Z,7.95
2022-11-17T01:21:05.252Z,10.60
2022-11-17T01:23:32.931Z,6.80
2022-11-17T01:26:13.110Z,5.10
2022-11-17T01:28:41.301Z,8.43
2022-11-17T01:31:14.003Z,9.73
2022-11-17T01:33:41.359Z,9.68
2022-11-17T01:36:16.107Z,9.35
2022-11-17T01:38:43.456Z,4.90
2022-11-17T01:41:22.299Z,9.82
2022-11-17T01:43:55.506Z,4.90
2022-11-17T01:46:39.435Z,8.90
2022-11-17T01:49:24.718Z,9.98
2022-11-17T01:51:57.308Z,7.75
2022-11-17T01:54:28.611Z,8.60
2022-11-17T01:57:02.538Z,6.65
2022-11-17T01:59:34.989Z,6.55
2022-11-17T02:02:01.815Z,7.93
2022-11-17T02:04:42.101Z,5.05
2022-11-17T02:07:22.559Z,8.13
2022-11-17T02:09:51.748Z,9.63
2022-11-17T02:12:19.276Z,13.25
2022-11-17T02:14:48.461Z,12.32
2022-11-17T02:17:15.273Z,7.13
2022-11-17T02:19:44.057Z,5.78
2022-11-17T02:22:40.462Z,8.18
2022-11-17T02:25:38.032Z,8.15
2022-11-17T02:28:34.505Z,5.95
2022-11-17T02:31:23.235Z,9.50
2022-11-17T02:33:58.979Z,9.43
2022-11-17T02:36:42.423Z,11.40
2022-11-17T02:39:18.396Z,7.50
2022-11-17T02:42:09.416Z,9.73
2022-11-17T02:45:12.035Z,11.32
2022-11-17T02:47:42.456Z,11.55
2022-11-17T02:50:11.146Z,8.95
2022-11-17T02:52:38.260Z,8.15
2022-11-17T02:55:07.881Z,10.75
2022-11-17T02:57:37.487Z,16.25
2022-11-17T03:00:11.600Z,11.02
2022-11-17T03:03:00.107Z,10.30
2022-11-17T03:05:42.315Z,12.52
2022-11-17T03:08:27.545Z,10.32
2022-11-17T03:11:07.316Z,14.00
2022-11-17T03:13:43.537Z,10.00
2022-11-17T03:16:43.796Z,13.13
2022-11-17T03:19:21.915Z,10.70
2022-11-17T03:21:56.873Z,10.93
2022-11-17T03:24:31.281Z,7.60
2022-11-17T03:27:03.943Z,12.85
2022-11-17T03:29:33.459Z,10.82
2022-11-17T03:32:05.039Z,12.60
2022-11-17T03:34:37.458Z,12.65
2022-11-17T03:37:06.920Z,16.63
2022-11-17T03:39:36.831Z,10.77
2022-11-17T03:42:15.777Z,14.65
2022-11-17T03:44:47.242Z,8.57
2022-11-17T03:47:17.606Z,11.85
2022-11-17T03:49:47.211Z,10.65
2022-11-17T03:52:13.920Z,15.93
2022-11-17T03:54:41.487Z,8.75
2022-11-17T03:57:19.955Z,7.85
2022-11-17T04:00:05.140Z,10.20
2022-11-17T04:02:45.531Z,10.32
2022-11-17T04:05:14.071Z,10.57
2022-11-17T04:07:43.055Z,14.90
2022-11-17T04:10:18.387Z,8.00
2022-11-17T04:13:05.856Z,12.57
2022-11-17T04:15:51.231Z,11.50
2022-11-17T04:18:19.106Z,8.90
2022-11-17T04:20:49.124Z,9.80
2022-11-17T04:23:16.062Z,8.52
2022-11-17T04:26:03.673Z,10.13
2022-11-17T04:28:37.853Z,10.18
2022-11-17T04:31:19.348Z,11.40
2022-11-17T04:33:50.952Z,13.77
2022-11-17T04:36:26.056Z,9.60
2022-11-17T04:38:54.740Z,10.55
2022-11-17T04:41:42.272Z,10.60
2022-11-17T04:44:11.067Z,13.40
2022-11-17T04:46:38.767Z,13.35
2022-11-17T04:49:06.978Z,9.90
2022-11-17T04:51:34.803Z,10.85
2022-11-17T04:54:02.502Z,14.82
2022-11-17T04:56:29.463Z,13.63
2022-11-17T04:58:56.541Z,12.60
2022-11-17T05:01:24.874Z,12.50
2022-11-17T05:03:57.067Z,13.02
2022-11-17T05:06:32.472Z,12.77
2022-11-17T05:09:01.156Z,11.35
2022-11-17T05:11:48.541Z,9.82
2022-11-17T05:14:17.865Z,8.90
2022-11-17T05:17:08.957Z,9.70
2022-11-17T05:19:44.497Z,11.57
2022-11-17T05:22:33.317Z,8.50
2022-11-17T05:25:00.354Z,10.45
2022-11-17T05:27:27.228Z,11.95
2022-11-17T05:29:53.863Z,13.40
2022-11-17T05:32:21.511Z,10.38
2022-11-17T05:34:48.235Z,18.45
2022-11-17T05:37:14.941Z,13.27
2022-11-17T05:39:41.546Z,12.93
2022-11-17T05:42:08.271Z,9.20
2022-11-17T05:44:34.931Z,11.43
2022-11-17T05:47:01.633Z,11.48
2022-11-17T05:49:28.272Z,11.00
2022-11-17T05:51:54.980Z,11.38
2022-11-17T05:54:21.583Z,10.77
2022-11-17T05:56:54.634Z,12.15
2022-11-17T05:59:36.553Z,8.48
2022-11-17T06:02:23.915Z,11.35
2022-11-17T06:04:52.046Z,12.77
2022-11-17T06:07:19.725Z,11.50
2022-11-17T06:09:46.824Z,12.57
2022-11-17T06:12:15.074Z,12.00
2022-11-17T06:14:41.725Z,10.10
2022-11-17T06:17:23.114Z,9.00
2022-11-17T06:19:56.813Z,9.10
2022-11-17T06:22:26.405Z,10.32
2022-11-17T06:24:54.226Z,12.55
2022-11-17T06:27:21.358Z,12.05
2022-11-17T06:29:49.069Z,10.05
2022-11-17T06:32:17.325Z,13.40
2022-11-17T06:34:50.424Z,9.75
2022-11-17T06:37:20.472Z,9.90
2022-11-17T06:39:47.094Z,11.18
2022-11-17T06:42:13.746Z,16.40
2022-11-17T06:44:40.331Z,8.38
2022-11-17T06:47:06.939Z,8.75
2022-11-17T06:49:33.498Z,8.65
2022-11-17T06:52:00.099Z,8.82
2022-11-17T06:54:26.720Z,10.60
2022-11-17T06:56:53.381Z,9.50
2022-11-17T06:59:20.091Z,9.82
2022-11-17T07:01:46.709Z,7.75
2022-11-17T07:04:13.362Z,9.57
2022-11-17T07:06:39.987Z,10.05
2022-11-17T07:09:06.701Z,8.63
2022-11-17T07:11:36.108Z,9.55
2022-11-17T07:14:03.079Z,9.13
2022-11-17T07:16:30.648Z,10.45
2022-11-17T07:18:59.117Z,10.70
2022-11-17T07:21:26.080Z,8.55
2022-11-17T07:23:52.685Z,11.43
2022-11-17T07:26:19.394Z,8.40
2022-11-17T07:28:46.039Z,7.70
2022-11-17T07:31:12.711Z,11.63
2022-11-17T07:33:39.338Z,11.10
2022-11-17T07:36:11.129Z,7.35
2022-11-17T07:38:39.547Z,8.30
2022-11-17T07:41:07.367Z,6.40
2022-11-17T07:43:34.873Z,9.55
2022-11-17T07:46:06.416Z,5.63
2022-11-17T07:48:34.011Z,6.35
2022-11-17T07:51:01.903Z,9.63
2022-11-17T07:53:28.875Z,8.43
2022-11-17T07:55:56.040Z,8.05
2022-11-17T07:58:25.245Z,8.52
2022-11-17T08:00:51.941Z,5.63
2022-11-17T08:03:18.665Z,7.20
2022-11-17T08:05:45.380Z,7.50
2022-11-17T08:08:13.339Z,6.30
2022-11-17T08:10:40.063Z,7.35
2022-11-17T08:13:07.446Z,5.13
2022-11-17T08:15:34.109Z,6.72
2022-11-17T08:18:01.165Z,5.53
2022-11-17T08:20:29.175Z,9.15
2022-11-17T08:22:56.567Z,6.18
2022-11-17T08:25:25.614Z,4.72
2022-11-17T08:27:57.710Z,4.57
2022-11-17T08:30:25.844Z,4.97
2022-11-17T08:32:54.277Z,6.78
2022-11-17T08:35:23.683Z,4.85
2022-11-17T08:37:50.378Z,5.22
2022-11-17T08:40:18.168Z,4.13
2022-11-17T08:42:45.353Z,5.20
2022-11-17T08:45:12.663Z,5.10
2022-11-17T08:47:39.741Z,4.32
2022-11-17T08:50:07.004Z,5.72
2022-11-17T08:52:33.687Z,5.47
2022-11-17T08:55:00.484Z,5.72
2022-11-17T08:57:29.598Z,3.78
2022-11-17T08:59:56.275Z,4.78
2022-11-17T09:02:22.997Z,4.88
2022-11-17T09:04:50.469Z,3.30
2022-11-17T09:07:17.722Z,5.25
2022-11-17T09:09:46.145Z,4.30
2022-11-17T09:12:12.822Z,3.47
2022-11-17T09:14:39.464Z,5.10
2022-11-17T09:17:06.290Z,7.57
2022-11-17T09:19:33.133Z,4.00
2022-11-17T09:21:59.855Z,3.35
2022-11-17T09:24:26.693Z,2.30
2022-11-17T09:26:54.789Z,2.90
2022-11-17T09:29:21.807Z,3.95
2022-11-17T09:31:48.623Z,4.28
2022-11-17T09:34:16.752Z,4.10
2022-11-17T09:36:43.954Z,3.28
2022-11-17T09:39:10.675Z,3.53
2022-11-17T09:41:43.329Z,4.65
2022-11-17T09:44:26.313Z,3.22
2022-11-17T09:47:07.905Z,1.95
2022-11-17T09:50:14.836Z,3.10
2022-11-17T09:53:01.650Z,3.60
2022-11-17T09:55:41.225Z,2.42
2022-11-17T09:58:32.926Z,3.15
2022-11-17T10:01:01.502Z,1.88
2022-11-17T10:03:32.269Z,4.65
2022-11-17T10:06:00.808Z,2.35
2022-11-17T10:09:01.848Z,4.65
2022-11-17T10:11:38.680Z,2.05
2022-11-17T10:14:10.559Z,3.83
2022-11-17T10:16:38.674Z,1.30
2022-11-17T10:19:17.903Z,2.13
2022-11-17T10:21:45.680Z,3.22
2022-11-17T10:24:38.124Z,1.23
2022-11-17T10:27:14.735Z,2.63
2022-11-17T10:29:41.352Z,3.03
2022-11-17T10:32:14.712Z,3.25
2022-11-17T10:34:41.924Z,1.33
2022-11-17T10:37:17.399Z,4.10
2022-11-17T10:39:44.074Z,1.58
2022-11-17T10:42:24.254Z,2.45
2022-11-17T10:44:56.176Z,2.55
2022-11-17T10:47:39.419Z,1.73
2022-11-17T10:50:20.620Z,1.00
2022-11-17T10:52:48.397Z,1.35
2022-11-17T10:55:24.342Z,3.30
2022-11-17T10:58:00.056Z,2.00
2022-11-17T11:00:33.001Z,1.67
2022-11-17T11:03:04.877Z,3.17
2022-11-17T11:05:31.590Z,2.72
2022-11-17T11:08:17.577Z,2.47
2022-11-17T11:10:47.204Z,3.13
2022-11-17T11:13:29.389Z,1.80
2022-11-17T11:15:56.091Z,1.85
2022-11-17T11:18:23.163Z,4.95
2022-11-17T11:21:05.089Z,3.60
2022-11-17T11:24:10.669Z,1.65
2022-11-17T11:26:50.483Z,4.50
2022-11-17T11:29:33.558Z,4.15
2022-11-17T11:32:17.430Z,6.07
2022-11-17T11:35:26.915Z,3.72
2022-11-17T11:37:58.752Z,1.73
2022-11-17T11:40:41.392Z,2.83
2022-11-17T11:43:31.584Z,3.17
2022-11-17T11:46:37.611Z,1.25
2022-11-17T11:49:42.117Z,2.17
2022-11-17T11:52:21.059Z,4.07
2022-11-17T11:54:56.813Z,4.10
2022-11-17T11:57:34.295Z,7.93
2022-11-17T12:00:17.561Z,8.02
2022-11-17T12:02:52.833Z,4.70
2022-11-17T12:05:45.187Z,6.18
2022-11-17T12:08:20.683Z,4.10
2022-11-17T12:11:26.390Z,3.75
2022-11-17T12:13:54.948Z,4.43
2022-11-17T12:16:36.579Z,2.78
2022-11-17T12:19:42.338Z,2.95
2022-11-17T12:22:09.562Z,2.95
2022-11-17T12:24:41.158Z,4.13
2022-11-17T12:27:40.760Z,2.78
2022-11-17T12:30:30.291Z,3.67
2022-11-17T12:32:58.646Z,1.08
2022-11-17T12:35:26.759Z,2.00
2022-11-17T12:38:15.301Z,1.50
2022-11-17T12:40:45.950Z,3.45
2022-11-17T12:43:15.407Z,3.35
2022-11-17T12:46:10.010Z,4.18
2022-11-17T12:48:39.104Z,2.42
2022-11-17T12:51:15.049Z,2.72
2022-11-17T12:53:58.573Z,1.33
2022-11-17T12:56:54.375Z,1.67
2022-11-17T12:59:38.352Z,2.33
2022-11-17T13:02:43.670Z,3.58
2022-11-17T13:05:20.364Z,3.25
2022-11-17T13:07:47.291Z,2.45
2022-11-17T13:10:29.632Z,1.77
2022-11-17T13:13:22.224Z,4.32
2022-11-17T13:15:59.335Z,3.95
2022-11-17T13:18:30.972Z,2.97
2022-11-17T13:20:58.230Z,1.60
2022-11-17T13:23:27.455Z,3.33
2022-11-17T13:26:09.871Z,2.08
2022-11-17T13:28:36.552Z,0.95
2022-11-17T13:31:03.398Z,2.10
2022-11-17T13:33:32.314Z,1.13
2022-11-17T13:36:17.100Z,1.63
2022-11-17T13:38:51.589Z,2.22
2022-11-17T13:41:19.795Z,4.55
2022-11-17T13:43:47.277Z,1.13
2022-11-17T13:46:14.050Z,2.35
2022-11-17T13:48:46.248Z,3.00
2022-11-17T13:51:29.493Z,2.72
2022-11-17T13:54:25.682Z,0.70
2022-11-17T13:57:00.583Z,2.45
2022-11-17T13:59:38.926Z,5.32
2022-11-17T14:02:19.280Z,3.30
2022-11-17T14:05:06.521Z,4.47
2022-11-17T14:07:35.527Z,1.00
2022-11-17T14:10:14.315Z,2.15
2022-11-17T14:12:41.779Z,2.75
2022-11-17T14:15:26.379Z,4.05
2022-11-17T14:17:58.643Z,1.30
2022-11-17T14:20:25.393Z,3.75
2022-11-17T14:23:10.157Z,1.20
2022-11-17T14:25:42.909Z,0.80
2022-11-17T14:28:14.076Z,4.45
2022-11-17T14:30:41.016Z,1.85
2022-11-17T14:33:13.177Z,1.38
2022-11-17T14:35:40.890Z,2.70
2022-11-17T14:38:18.791Z,3.20
2022-11-17T14:40:45.481Z,1.55
2022-11-17T14:43:12.127Z,2.92
2022-11-17T14:45:38.781Z,3.38
2022-11-17T14:48:08.297Z,1.08
2022-11-17T14:50:34.927Z,1.40
2022-11-17T14:53:01.596Z,2.70
2022-11-17T14:55:28.253Z,2.53
2022-11-17T14:57:55.045Z,3.58
2022-11-17T15:00:22.027Z,4.60
2022-11-17T15:02:49.340Z,9.80
2022-11-17T15:05:16.166Z,3.63
2022-11-17T15:07:43.381Z,3.40
2022-11-17T15:10:10.634Z,1.48
2022-11-17T15:12:37.576Z,3.08
2022-11-17T15:15:05.220Z,4.65
2022-11-17T15:17:31.954Z,3.60
2022-11-17T15:19:58.583Z,2.60
2022-11-17T15:22:25.258Z,1.60
2022-11-17T15:24:51.907Z,7.60
2022-11-17T15:27:18.521Z,2.05
2022-11-17T15:29:45.191Z,1.30
2022-11-17T15:32:11.884Z,1.42
2022-11-17T15:34:38.572Z,0.60
2022-11-17T15:37:05.390Z,1.10
2022-11-17T15:39:32.155Z,2.00
2022-11-17T15:41:58.787Z,2.50
2022-11-17T15:44:25.476Z,2.60
2022-11-17T15:46:52.131Z,3.03
2022-11-17T15:49:19.038Z,2.45
2022-11-17T15:51:45.906Z,2.65
2022-11-17T15:54:18.572Z,2.15
2022-11-17T15:56:47.182Z,4.28
2022-11-17T15:59:16.106Z,1.98
2022-11-17T16:01:43.765Z,2.88
2022-11-17T16:04:12.117Z,6.15
2022-11-17T16:06:41.250Z,4.32
2022-11-17T16:09:08.959Z,3.78
2022-11-17T16:11:36.113Z,2.45
2022-11-17T16:14:03.447Z,2.30
2022-11-17T16:16:32.999Z,1.40
2022-11-17T16:18:59.662Z,2.05
2022-11-17T16:21:26.474Z,5.18
2022-11-17T16:23:56.613Z,1.48
2022-11-17T16:26:26.768Z,1.42
2022-11-17T16:28:57.803Z,3.45
2022-11-17T16:31:27.658Z,2.65
2022-11-17T16:33:59.220Z,2.10
2022-11-17T16:36:32.874Z,1.80
2022-11-17T16:39:04.097Z,5.20
2022-11-17T16:41:39.784Z,1.88
2022-11-17T16:44:09.277Z,2.50
2022-11-17T16:46:36.002Z,3.67
2022-11-17T16:49:05.601Z,2.75
2022-11-17T16:51:32.564Z,2.60
2022-11-17T16:54:05.291Z,2.70
2022-11-17T16:56:33.901Z,3.92
2022-11-17T16:59:00.632Z,3.42
2022-11-17T17:01:30.323Z,3.75
2022-11-17T17:03:58.893Z,3.92
2022-11-17T17:06:26.129Z,1.90
2022-11-17T17:08:57.550Z,2.53
2022-11-17T17:11:24.709Z,3.83
2022-11-17T17:13:51.547Z,4.57
2022-11-17T17:16:19.773Z,1.75
2022-11-17T17:18:46.500Z,2.80
2022-11-17T17:21:18.863Z,2.92
2022-11-17T17:23:45.873Z,4.15
2022-11-17T17:26:16.647Z,2.85
2022-11-17T17:28:48.303Z,2.78
2022-11-17T17:31:21.229Z,5.85
2022-11-17T17:33:50.505Z,3.72
2022-11-17T17:36:19.956Z,2.58
2022-11-17T17:38:53.302Z,5.20
2022-11-17T17:41:23.054Z,3.80
2022-11-17T17:44:17.657Z,4.63
2022-11-17T17:46:45.705Z,4.68
2022-11-17T17:49:12.931Z,3.80
2022-11-17T17:51:43.095Z,3.78
2022-11-17T17:54:23.828Z,5.65
2022-11-17T17:56:50.490Z,2.58
2022-11-17T17:59:17.570Z,6.30
2022-11-17T18:01:46.041Z,4.18
2022-11-17T18:04:16.262Z,3.13
2022-11-17T18:06:46.950Z,2.55
2022-11-17T18:09:15.414Z,3.28
2022-11-17T18:11:45.833Z,3.03
2022-11-17T18:14:13.245Z,4.47
2022-11-17T18:16:40.035Z,2.40
2022-11-17T18:19:08.912Z,3.83
2022-11-17T18:21:36.133Z,7.68
2022-11-17T18:24:03.793Z,7.10
2022-11-17T18:26:35.444Z,5.53
2022-11-17T18:29:05.225Z,5.25
2022-11-17T18:31:34.454Z,2.55
2022-11-17T18:34:03.497Z,2.55
2022-11-17T18:36:31.050Z,3.10
2022-11-17T18:39:01.096Z,3.55
2022-11-17T18:41:30.648Z,5.25
2022-11-17T18:43:57.970Z,1.77
2022-11-17T18:46:26.002Z,3.28
2022-11-17T18:48:53.195Z,2.75
2022-11-17T18:51:21.722Z,3.85
2022-11-17T18:53:50.094Z,2.13
2022-11-17T18:56:20.428Z,3.33
2022-11-17T18:58:47.292Z,1.45
2022-11-17T19:01:19.460Z,2.90
2022-11-17T19:03:50.359Z,4.45
2022-11-17T19:06:18.704Z,3.55
2022-11-17T19:08:46.105Z,2.38
2022-11-17T19:11:13.285Z,4.78
2022-11-17T19:13:41.795Z,4.60
2022-11-17T19:16:20.287Z,5.65
2022-11-17T19:18:49.046Z,7.35
2022-11-17T19:21:21.427Z,5.40
2022-11-17T19:23:51.895Z,5.45
2022-11-17T19:26:24.621Z,4.03
2022-11-17T19:28:58.547Z,5.75
2022-11-17T19:31:26.108Z,9.07
2022-11-17T19:33:54.195Z,5.78
2022-11-17T19:36:23.508Z,4.60
2022-11-17T19:38:52.164Z,3.58
2022-11-17T19:41:25.226Z,4.32
2022-11-17T19:43:56.297Z,6.45
2022-11-17T19:46:24.470Z,6.53
2022-11-17T19:48:51.423Z,4.72
2022-11-17T19:51:22.663Z,3.70
2022-11-17T19:53:51.650Z,4.35
2022-11-17T19:56:18.874Z,7.00
2022-11-17T19:58:46.138Z,5.32
2022-11-17T20:01:18.372Z,4.70
2022-11-17T20:03:46.214Z,5.35
2022-11-17T20:06:18.221Z,3.97
2022-11-17T20:08:45.855Z,3.90
2022-11-17T20:11:15.328Z,4.90
2022-11-17T20:13:42.236Z,6.40
2022-11-17T20:16:12.822Z,6.78
2022-11-17T20:18:44.047Z,6.28
2022-11-17T20:21:13.665Z,6.43
2022-11-17T20:23:40.768Z,5.97
2022-11-17T20:26:13.098Z,5.15
2022-11-17T20:28:40.499Z,2.80
2022-11-17T20:31:13.856Z,5.38
2022-11-17T20:33:42.562Z,5.40
2022-11-17T20:36:12.835Z,4.68
2022-11-17T20:38:39.576Z,6.75
2022-11-17T20:41:07.673Z,6.10
2022-11-17T20:43:34.935Z,5.53
2022-11-17T20:46:02.803Z,4.63
2022-11-17T20:48:30.175Z,5.75
2022-11-17T20:51:07.832Z,4.43
2022-11-17T20:53:35.298Z,4.57
2022-11-17T20:56:03.661Z,3.60
2022-11-17T20:58:30.506Z,4.95
2022-11-17T21:00:57.550Z,3.22
2022-11-17T21:03:26.023Z,6.68
2022-11-17T21:06:00.611Z,5.90
2022-11-17T21:08:30.665Z,7.05
2022-11-17T21:10:59.079Z,6.40
2022-11-17T21:13:27.128Z,8.05
2022-11-17T21:16:13.536Z,4.82
2022-11-17T21:18:46.329Z,9.68
2022-11-17T21:21:13.644Z,5.47
2022-11-17T21:23:40.999Z,8.55
2022-11-17T21:26:09.579Z,6.13
2022-11-17T21:28:37.477Z,5.63
2022-11-17T21:31:15.484Z,8.65
2022-11-17T21:33:43.282Z,5.97
2022-11-17T21:36:13.389Z,6.18
2022-11-17T21:38:40.468Z,5.03
2022-11-17T21:41:08.552Z,4.65
2022-11-17T21:43:39.533Z,6.00
2022-11-17T21:46:08.975Z,5.53
2022-11-17T21:48:37.019Z,3.55
2022-11-17T21:51:13.278Z,7.18
2022-11-17T21:53:39.962Z,4.47
2022-11-17T21:56:07.595Z,3.58
2022-11-17T21:58:34.687Z,5.22
2022-11-17T22:01:12.883Z,4.38
2022-11-17T22:03:40.624Z,5.55
2022-11-17T22:06:08.772Z,5.13
2022-11-17T22:08:39.721Z,6.32
2022-11-17T22:11:08.524Z,4.90
2022-11-17T22:13:35.415Z,3.65
2022-11-17T22:16:13.653Z,3.75
2022-11-17T22:18:41.399Z,6.63
2022-11-17T22:21:09.042Z,4.35
2022-11-17T22:23:35.795Z,6.50
2022-11-17T22:26:04.479Z,5.95
2022-11-17T22:28:31.186Z,9.90
2022-11-17T22:30:58.020Z,5.53
2022-11-17T22:33:25.114Z,3.72
2022-11-17T22:35:51.900Z,8.10
2022-11-17T22:38:18.542Z,6.15
2022-11-17T22:40:45.237Z,6.20
2022-11-17T22:43:15.200Z,4.10
2022-11-17T22:45:42.593Z,6.10
2022-11-17T22:48:09.558Z,7.93
2022-11-17T22:50:36.339Z,6.82
2022-11-17T22:53:03.069Z,4.60
2022-11-17T22:55:29.998Z,7.22
2022-11-17T22:57:56.685Z,4.28
2022-11-17T23:00:23.539Z,4.75
2022-11-17T23:02:50.321Z,9.75
2022-11-17T23:05:17.157Z,6.28
2022-11-17T23:07:44.088Z,5.70
2022-11-17T23:10:11.338Z,4.68
2022-11-17T23:12:38.295Z,4.15
2022-11-17T23:15:06.063Z,6.53
2022-11-17T23:17:32.766Z,5.65
2022-11-17T23:19:59.595Z,7.22
2022-11-17T23:22:26.265Z,3.67
2022-11-17T23:24:52.881Z,3.63
2022-11-17T23:27:19.731Z,4.97
2022-11-17T23:29:46.372Z,5.18
2022-11-17T23:32:13.030Z,7.45
2022-11-17T23:34:39.637Z,9.00
2022-11-17T23:37:06.240Z,3.90
2022-11-17T23:39:33.315Z,4.05
2022-11-17T23:42:00.003Z,7.47
2022-11-17T23:44:26.621Z,6.18
2022-11-17T23:46:53.380Z,5.88
2022-11-17T23:49:20.208Z,6.57
2022-11-17T23:51:46.970Z,4.53
2022-11-17T23:54:14.036Z,7.68
2022-11-17T23:56:40.643Z,5.88
2022-11-17T23:59:08.152Z,8.95
